sensor_id;sensor_type;location;lat;lon;timestamp;pressure;altitude;pressure_sealevel;temperature;humidity
72124;BME280;63818;37.134;-8.548;2023-04-03T00:03:03;101728.1;;;20.0;40.9
72124;BME280;63818;37.134;-8.548;2023-04-03T00:07:52;101728.3;;;20.0;40.6
72124;BME280;63818;37.134;-8.548;2023-04-03T00:12:38;101716.2;;;19.9;40.3
72124;BME280;63818;37.134;-8.548;2023-04-03T00:17:25;101711.8;;;19.9;40.0
72124;BME280;63818;37.134;-8.548;2023-04-03T00:22:14;101705.4;;;19.9;40.1
72124;BME280;63818;37.134;-8.548;2023-04-03T00:27:00;101708.5;;;19.8;40.4
72124;BME280;63818;37.134;-8.548;2023-04-03T00:31:47;101696.0;;;19.8;40.0
72124;BME280;63818;37.134;-8.548;2023-04-03T00:36:34;101692.0;;;19.8;39.2
72124;BME280;63818;37.134;-8.548;2023-04-03T00:41:22;101683.8;;;19.8;39.2
72124;BME280;63818;37.134;-8.548;2023-04-03T00:46:08;101687.8;;;19.8;38.9
72124;BME280;63818;37.134;-8.548;2023-04-03T00:50:54;101672.1;;;19.8;38.2
72124;BME280;63818;37.134;-8.548;2023-04-03T00:55:41;101675.6;;;19.8;37.8
72124;BME280;63818;37.134;-8.548;2023-04-03T01:00:31;101668.2;;;19.8;38.1
72124;BME280;63818;37.134;-8.548;2023-04-03T01:05:17;101665.8;;;19.8;38.1
72124;BME280;63818;37.134;-8.548;2023-04-03T01:10:08;101648.6;;;19.8;37.8
72124;BME280;63818;37.134;-8.548;2023-04-03T01:14:56;101649.3;;;19.7;37.8
72124;BME280;63818;37.134;-8.548;2023-04-03T01:19:54;101639.0;;;19.7;37.6
72124;BME280;63818;37.134;-8.548;2023-04-03T01:24:43;101631.0;;;19.6;37.1
72124;BME280;63818;37.134;-8.548;2023-04-03T01:29:34;101624.6;;;19.5;36.6
72124;BME280;63818;37.134;-8.548;2023-04-03T01:34:21;101617.6;;;19.5;36.6
72124;BME280;63818;37.134;-8.548;2023-04-03T01:39:10;101601.5;;;19.5;37.2
72124;BME280;63818;37.134;-8.548;2023-04-03T01:43:57;101595.2;;;19.5;37.1
72124;BME280;63818;37.134;-8.548;2023-04-03T01:48:48;101597.9;;;19.5;37.4
72124;BME280;63818;37.134;-8.548;2023-04-03T01:53:37;101589.3;;;19.5;37.0
72124;BME280;63818;37.134;-8.548;2023-04-03T01:58:25;101566.5;;;19.4;36.6
72124;BME280;63818;37.134;-8.548;2023-04-03T02:03:11;101570.4;;;19.4;36.1
72124;BME280;63818;37.134;-8.548;2023-04-03T02:07:57;101561.7;;;19.3;36.3
72124;BME280;63818;37.134;-8.548;2023-04-03T02:12:43;101551.6;;;19.4;36.3
72124;BME280;63818;37.134;-8.548;2023-04-03T02:17:35;101549.7;;;19.4;36.2
72124;BME280;63818;37.134;-8.548;2023-04-03T02:22:21;101546.8;;;19.3;36.3
72124;BME280;63818;37.134;-8.548;2023-04-03T02:27:13;101539.0;;;19.3;36.0
72124;BME280;63818;37.134;-8.548;2023-04-03T02:32:04;101541.8;;;19.3;36.1
72124;BME280;63818;37.134;-8.548;2023-04-03T02:36:53;101540.6;;;19.3;35.9
72124;BME280;63818;37.134;-8.548;2023-04-03T02:41:40;101535.7;;;19.2;35.8
72124;BME280;63818;37.134;-8.548;2023-04-03T02:46:27;101519.0;;;19.2;35.8
72124;BME280;63818;37.134;-8.548;2023-04-03T02:51:13;101514.2;;;19.2;35.6
72124;BME280;63818;37.134;-8.548;2023-04-03T02:55:59;101500.6;;;19.2;35.6
72124;BME280;63818;37.134;-8.548;2023-04-03T03:00:45;101486.5;;;19.2;35.6
72124;BME280;63818;37.134;-8.548;2023-04-03T03:05:31;101486.4;;;19.1;35.4
72124;BME280;63818;37.134;-8.548;2023-04-03T03:10:18;101484.7;;;19.1;35.3
72124;BME280;63818;37.134;-8.548;2023-04-03T03:15:09;101478.8;;;19.1;35.6
72124;BME280;63818;37.134;-8.548;2023-04-03T03:19:56;101480.0;;;19.1;35.2
72124;BME280;63818;37.134;-8.548;2023-04-03T03:24:42;101480.4;;;19.1;35.4
72124;BME280;63818;37.134;-8.548;2023-04-03T03:29:30;101477.3;;;19.1;35.1
72124;BME280;63818;37.134;-8.548;2023-04-03T03:34:21;101476.9;;;19.1;34.2
72124;BME280;63818;37.134;-8.548;2023-04-03T03:39:07;101471.0;;;19.1;34.1
72124;BME280;63818;37.134;-8.548;2023-04-03T03:43:54;101473.4;;;19.1;33.5
72124;BME280;63818;37.134;-8.548;2023-04-03T03:48:39;101477.6;;;19.0;33.7
72124;BME280;63818;37.134;-8.548;2023-04-03T03:53:36;101481.9;;;19.1;34.0
72124;BME280;63818;37.134;-8.548;2023-04-03T03:58:22;101476.3;;;19.0;33.6
72124;BME280;63818;37.134;-8.548;2023-04-03T04:03:08;101473.1;;;19.0;33.3
72124;BME280;63818;37.134;-8.548;2023-04-03T04:07:56;101453.7;;;19.0;33.3
72124;BME280;63818;37.134;-8.548;2023-04-03T04:12:42;101450.1;;;19.0;33.2
72124;BME280;63818;37.134;-8.548;2023-04-03T04:17:30;101450.4;;;18.9;32.9
72124;BME280;63818;37.134;-8.548;2023-04-03T04:22:16;101442.5;;;18.9;33.0
72124;BME280;63818;37.134;-8.548;2023-04-03T04:27:02;101445.1;;;18.8;33.2
72124;BME280;63818;37.134;-8.548;2023-04-03T04:31:48;101427.9;;;18.8;33.4
72124;BME280;63818;37.134;-8.548;2023-04-03T04:36:37;101432.8;;;18.8;33.1
72124;BME280;63818;37.134;-8.548;2023-04-03T04:41:23;101432.0;;;18.8;33.2
72124;BME280;63818;37.134;-8.548;2023-04-03T04:46:10;101438.7;;;18.8;33.6
72124;BME280;63818;37.134;-8.548;2023-04-03T04:50:56;101431.9;;;18.7;33.7
72124;BME280;63818;37.134;-8.548;2023-04-03T04:55:45;101437.9;;;18.6;34.1
72124;BME280;63818;37.134;-8.548;2023-04-03T05:00:31;101441.6;;;18.6;34.0
72124;BME280;63818;37.134;-8.548;2023-04-03T05:10:11;101437.3;;;18.6;33.3
72124;BME280;63818;37.134;-8.548;2023-04-03T05:14:59;101435.8;;;18.6;32.7
72124;BME280;63818;37.134;-8.548;2023-04-03T05:19:45;101431.6;;;18.6;32.4
72124;BME280;63818;37.134;-8.548;2023-04-03T05:24:34;101431.6;;;18.6;32.2
72124;BME280;63818;37.134;-8.548;2023-04-03T05:29:21;101431.6;;;18.6;31.6
72124;BME280;63818;37.134;-8.548;2023-04-03T05:34:09;101428.1;;;18.6;31.7
72124;BME280;63818;37.134;-8.548;2023-04-03T05:39:05;101428.1;;;18.6;31.2
72124;BME280;63818;37.134;-8.548;2023-04-03T05:43:51;101432.8;;;18.6;31.7
72124;BME280;63818;37.134;-8.548;2023-04-03T05:48:37;101425.7;;;18.6;31.7
72124;BME280;63818;37.134;-8.548;2023-04-03T05:53:27;101434.8;;;18.5;32.0
72124;BME280;63818;37.134;-8.548;2023-04-03T05:58:15;101441.6;;;18.5;32.0
72124;BME280;63818;37.134;-8.548;2023-04-03T06:03:00;101449.2;;;18.4;33.5
72124;BME280;63818;37.134;-8.548;2023-04-03T06:07:54;101453.2;;;18.3;35.2
72124;BME280;63818;37.134;-8.548;2023-04-03T06:12:40;101454.6;;;18.3;34.8
72124;BME280;63818;37.134;-8.548;2023-04-03T06:17:38;101449.0;;;18.2;34.3
72124;BME280;63818;37.134;-8.548;2023-04-03T06:22:24;101461.7;;;18.2;34.8
72124;BME280;63818;37.134;-8.548;2023-04-03T06:27:15;101458.2;;;18.2;34.5
72124;BME280;63818;37.134;-8.548;2023-04-03T06:32:01;101449.5;;;18.2;33.5
72124;BME280;63818;37.134;-8.548;2023-04-03T06:36:49;101448.7;;;18.4;32.1
72124;BME280;63818;37.134;-8.548;2023-04-03T06:41:35;101448.1;;;18.4;31.0
72124;BME280;63818;37.134;-8.548;2023-04-03T06:51:14;101442.5;;;18.5;31.3
72124;BME280;63818;37.134;-8.548;2023-04-03T06:56:01;101440.2;;;18.5;30.7
72124;BME280;63818;37.134;-8.548;2023-04-03T07:00:49;101435.0;;;18.6;30.4
72124;BME280;63818;37.134;-8.548;2023-04-03T07:05:35;101440.1;;;18.6;30.2
72124;BME280;63818;37.134;-8.548;2023-04-03T07:10:24;101444.1;;;18.6;30.4
72124;BME280;63818;37.134;-8.548;2023-04-03T07:15:10;101443.1;;;18.7;30.4
72124;BME280;63818;37.134;-8.548;2023-04-03T07:19:59;101455.2;;;18.7;30.0
72124;BME280;63818;37.134;-8.548;2023-04-03T07:24:45;101452.0;;;18.7;30.9
72124;BME280;63818;37.134;-8.548;2023-04-03T07:29:31;101454.8;;;18.7;31.4
72124;BME280;63818;37.134;-8.548;2023-04-03T07:34:19;101462.6;;;18.7;32.0
72124;BME280;63818;37.134;-8.548;2023-04-03T07:39:06;101461.3;;;18.7;31.8
72124;BME280;63818;37.134;-8.548;2023-04-03T07:43:54;101459.5;;;18.7;32.1
72124;BME280;63818;37.134;-8.548;2023-04-03T07:48:42;101448.3;;;18.7;32.3
72124;BME280;63818;37.134;-8.548;2023-04-03T07:53:32;101442.3;;;18.8;32.7
72124;BME280;63818;37.134;-8.548;2023-04-03T07:58:18;101453.4;;;18.9;33.6
72124;BME280;63818;37.134;-8.548;2023-04-03T08:03:06;101457.2;;;18.9;33.5
72124;BME280;63818;37.134;-8.548;2023-04-03T08:07:53;101453.7;;;18.9;33.5
72124;BME280;63818;37.134;-8.548;2023-04-03T08:12:40;101459.2;;;18.9;34.9
72124;BME280;63818;37.134;-8.548;2023-04-03T08:17:36;101456.2;;;18.9;35.0
72124;BME280;63818;37.134;-8.548;2023-04-03T08:22:22;101452.8;;;18.9;36.0
72124;BME280;63818;37.134;-8.548;2023-04-03T08:27:09;101454.0;;;19.0;36.3
72124;BME280;63818;37.134;-8.548;2023-04-03T08:31:59;101450.6;;;19.0;35.7
72124;BME280;63818;37.134;-8.548;2023-04-03T08:36:46;101450.0;;;19.1;35.7
72124;BME280;63818;37.134;-8.548;2023-04-03T08:41:34;101455.2;;;19.1;36.2
72124;BME280;63818;37.134;-8.548;2023-04-03T08:46:22;101449.9;;;19.1;35.9
72124;BME280;63818;37.134;-8.548;2023-04-03T08:51:14;101455.8;;;19.2;35.6
72124;BME280;63818;37.134;-8.548;2023-04-03T08:56:04;101457.0;;;19.2;36.0
72124;BME280;63818;37.134;-8.548;2023-04-03T09:00:54;101460.2;;;19.2;36.1
72124;BME280;63818;37.134;-8.548;2023-04-03T09:05:43;101457.5;;;19.2;36.0
72124;BME280;63818;37.134;-8.548;2023-04-03T09:10:34;101450.2;;;19.3;35.3
72124;BME280;63818;37.134;-8.548;2023-04-03T09:15:24;101447.2;;;19.3;35.1
72124;BME280;63818;37.134;-8.548;2023-04-03T09:20:22;101451.5;;;19.3;34.6
72124;BME280;63818;37.134;-8.548;2023-04-03T09:25:13;101444.5;;;19.3;34.2
72124;BME280;63818;37.134;-8.548;2023-04-03T09:30:00;101430.6;;;19.4;34.1
72124;BME280;63818;37.134;-8.548;2023-04-03T09:34:51;101433.7;;;19.4;33.8
72124;BME280;63818;37.134;-8.548;2023-04-03T09:39:51;101422.1;;;19.4;33.0
72124;BME280;63818;37.134;-8.548;2023-04-03T09:44:38;101407.8;;;19.4;32.6
72124;BME280;63818;37.134;-8.548;2023-04-03T09:49:27;101402.0;;;19.5;31.3
72124;BME280;63818;37.134;-8.548;2023-04-03T09:54:34;101412.2;;;19.5;30.5
72124;BME280;63818;37.134;-8.548;2023-04-03T09:59:23;101403.4;;;19.5;30.1
72124;BME280;63818;37.134;-8.548;2023-04-03T10:04:14;101417.1;;;19.5;30.6
72124;BME280;63818;37.134;-8.548;2023-04-03T10:09:02;101412.9;;;19.6;30.8
72124;BME280;63818;37.134;-8.548;2023-04-03T10:13:53;101416.4;;;19.6;31.0
72124;BME280;63818;37.134;-8.548;2023-04-03T10:18:46;101416.0;;;19.6;31.1
72124;BME280;63818;37.134;-8.548;2023-04-03T10:23:39;101409.4;;;19.6;30.7
72124;BME280;63818;37.134;-8.548;2023-04-03T10:28:31;101406.4;;;19.6;30.6
72124;BME280;63818;37.134;-8.548;2023-04-03T10:38:35;101410.3;;;19.6;30.3
72124;BME280;63818;37.134;-8.548;2023-04-03T10:43:30;101404.1;;;19.6;30.1
72124;BME280;63818;37.134;-8.548;2023-04-03T10:48:29;101398.3;;;19.7;30.3
72124;BME280;63818;37.134;-8.548;2023-04-03T10:53:27;101397.1;;;19.7;30.5
72124;BME280;63818;37.134;-8.548;2023-04-03T10:58:24;101393.2;;;19.7;30.5
72124;BME280;63818;37.134;-8.548;2023-04-03T11:03:15;101394.0;;;19.7;30.6
72124;BME280;63818;37.134;-8.548;2023-04-03T11:08:12;101394.8;;;19.7;30.3
72124;BME280;63818;37.134;-8.548;2023-04-03T11:13:10;101403.8;;;19.7;29.5
72124;BME280;63818;37.134;-8.548;2023-04-03T11:18:00;101395.6;;;19.7;29.3
72124;BME280;63818;37.134;-8.548;2023-04-03T11:22:53;101389.8;;;19.7;29.1
72124;BME280;63818;37.134;-8.548;2023-04-03T11:27:46;101389.5;;;19.7;29.2
72124;BME280;63818;37.134;-8.548;2023-04-03T11:33:04;101384.0;;;19.7;29.0
72124;BME280;63818;37.134;-8.548;2023-04-03T11:37:54;101364.2;;;19.8;29.2
72124;BME280;63818;37.134;-8.548;2023-04-03T11:42:46;101354.1;;;19.8;29.6
72124;BME280;63818;37.134;-8.548;2023-04-03T11:47:49;101351.7;;;19.7;29.4
72124;BME280;63818;37.134;-8.548;2023-04-03T11:52:58;101342.4;;;19.8;29.9
72124;BME280;63818;37.134;-8.548;2023-04-03T11:58:10;101339.3;;;19.8;30.1
72124;BME280;63818;37.134;-8.548;2023-04-03T12:02:59;101339.0;;;19.8;30.8
72124;BME280;63818;37.134;-8.548;2023-04-03T12:08:52;101326.9;;;19.8;31.5
72124;BME280;63818;37.134;-8.548;2023-04-03T12:13:41;101315.0;;;19.8;31.7
72124;BME280;63818;37.134;-8.548;2023-04-03T12:19:24;101317.2;;;19.8;31.6
72124;BME280;63818;37.134;-8.548;2023-04-03T12:24:04;101300.9;;;19.8;31.9
72124;BME280;63818;37.134;-8.548;2023-04-03T12:28:53;101283.4;;;19.8;31.9
72124;BME280;63818;37.134;-8.548;2023-04-03T12:34:01;101272.9;;;19.9;31.8
72124;BME280;63818;37.134;-8.548;2023-04-03T12:38:58;101265.1;;;19.8;31.4
72124;BME280;63818;37.134;-8.548;2023-04-03T12:43:54;101263.2;;;19.9;32.2
72124;BME280;63818;37.134;-8.548;2023-04-03T12:48:52;101231.6;;;19.9;32.6
72124;BME280;63818;37.134;-8.548;2023-04-03T12:53:38;101226.2;;;19.9;33.6
72124;BME280;63818;37.134;-8.548;2023-04-03T12:58:26;101216.1;;;19.9;33.4
72124;BME280;63818;37.134;-8.548;2023-04-03T13:03:28;101224.7;;;19.9;36.2
72124;BME280;63818;37.134;-8.548;2023-04-03T13:08:17;101223.2;;;19.9;36.8
72124;BME280;63818;37.134;-8.548;2023-04-03T13:13:09;101216.9;;;19.9;37.5
72124;BME280;63818;37.134;-8.548;2023-04-03T13:18:30;101200.1;;;19.9;37.5
72124;BME280;63818;37.134;-8.548;2023-04-03T13:23:17;101192.4;;;19.9;38.1
72124;BME280;63818;37.134;-8.548;2023-04-03T13:28:07;101199.1;;;19.9;38.5
72124;BME280;63818;37.134;-8.548;2023-04-03T13:32:57;101197.5;;;19.9;37.9
72124;BME280;63818;37.134;-8.548;2023-04-03T13:37:55;101206.9;;;20.0;38.1
72124;BME280;63818;37.134;-8.548;2023-04-03T13:42:42;101201.8;;;19.9;37.4
72124;BME280;63818;37.134;-8.548;2023-04-03T13:47:39;101199.4;;;19.9;36.5
72124;BME280;63818;37.134;-8.548;2023-04-03T13:52:30;101182.3;;;20.0;36.4
72124;BME280;63818;37.134;-8.548;2023-04-03T13:57:16;101173.8;;;20.0;36.2
72124;BME280;63818;37.134;-8.548;2023-04-03T14:02:22;101158.2;;;20.0;35.9
72124;BME280;63818;37.134;-8.548;2023-04-03T14:07:18;101152.4;;;20.0;35.1
72124;BME280;63818;37.134;-8.548;2023-04-03T14:12:08;101138.8;;;20.0;35.8
72124;BME280;63818;37.134;-8.548;2023-04-03T14:17:02;101149.1;;;20.1;36.7
72124;BME280;63818;37.134;-8.548;2023-04-03T14:21:49;101126.5;;;20.1;36.5
72124;BME280;63818;37.134;-8.548;2023-04-03T14:26:38;101110.2;;;20.1;36.4
72124;BME280;63818;37.134;-8.548;2023-04-03T14:31:26;101101.6;;;20.2;36.2
72124;BME280;63818;37.134;-8.548;2023-04-03T14:36:15;101083.6;;;20.3;35.2
72124;BME280;63818;37.134;-8.548;2023-04-03T14:41:01;101075.0;;;20.3;35.7
72124;BME280;63818;37.134;-8.548;2023-04-03T14:45:49;101074.0;;;20.4;35.3
72124;BME280;63818;37.134;-8.548;2023-04-03T14:50:36;101057.0;;;20.5;35.0
72124;BME280;63818;37.134;-8.548;2023-04-03T14:55:23;101033.8;;;20.6;34.8
72124;BME280;63818;37.134;-8.548;2023-04-03T15:00:15;101034.4;;;20.7;35.5
72124;BME280;63818;37.134;-8.548;2023-04-03T15:05:03;101022.9;;;20.9;35.3
72124;BME280;63818;37.134;-8.548;2023-04-03T15:09:50;101012.5;;;21.0;36.9
72124;BME280;63818;37.134;-8.548;2023-04-03T15:14:37;101005.7;;;21.1;39.2
72124;BME280;63818;37.134;-8.548;2023-04-03T15:19:25;100994.6;;;21.3;39.9
72124;BME280;63818;37.134;-8.548;2023-04-03T15:24:12;100971.3;;;21.4;39.0
72124;BME280;63818;37.134;-8.548;2023-04-03T15:29:01;100958.7;;;21.4;38.3
72124;BME280;63818;37.134;-8.548;2023-04-03T15:33:47;100940.6;;;21.6;38.5
72124;BME280;63818;37.134;-8.548;2023-04-03T15:38:34;100929.4;;;21.8;38.4
72124;BME280;63818;37.134;-8.548;2023-04-03T15:43:21;100933.4;;;21.8;37.2
72124;BME280;63818;37.134;-8.548;2023-04-03T15:48:07;100914.9;;;22.2;34.4
72124;BME280;63818;37.134;-8.548;2023-04-03T15:52:54;100905.0;;;22.5;32.4
72124;BME280;63818;37.134;-8.548;2023-04-03T15:57:41;100894.9;;;22.8;32.4
72124;BME280;63818;37.134;-8.548;2023-04-03T16:02:27;100902.0;;;23.0;31.9
72124;BME280;63818;37.134;-8.548;2023-04-03T16:07:15;100892.7;;;23.0;32.0
72124;BME280;63818;37.134;-8.548;2023-04-03T16:12:01;100868.0;;;23.1;31.9
72124;BME280;63818;37.134;-8.548;2023-04-03T16:16:48;100859.0;;;23.1;31.8
72124;BME280;63818;37.134;-8.548;2023-04-03T16:21:34;100856.3;;;23.1;32.4
72124;BME280;63818;37.134;-8.548;2023-04-03T16:26:20;100848.8;;;23.2;32.3
72124;BME280;63818;37.134;-8.548;2023-04-03T16:31:09;100832.0;;;23.1;32.8
72124;BME280;63818;37.134;-8.548;2023-04-03T16:35:56;100838.2;;;23.0;33.0
72124;BME280;63818;37.134;-8.548;2023-04-03T16:40:41;100837.4;;;22.7;34.5
72124;BME280;63818;37.134;-8.548;2023-04-03T16:45:31;100852.9;;;22.4;35.7
72124;BME280;63818;37.134;-8.548;2023-04-03T16:50:16;100841.0;;;22.2;37.2
72124;BME280;63818;37.134;-8.548;2023-04-03T16:55:03;100864.4;;;22.1;38.0
72124;BME280;63818;37.134;-8.548;2023-04-03T16:59:49;100878.1;;;22.1;39.6
72124;BME280;63818;37.134;-8.548;2023-04-03T17:04:35;100857.8;;;22.1;36.2
72124;BME280;63818;37.134;-8.548;2023-04-03T17:09:24;100874.9;;;22.0;35.8
72124;BME280;63818;37.134;-8.548;2023-04-03T17:14:10;100901.0;;;21.8;40.3
72124;BME280;63818;37.134;-8.548;2023-04-03T17:18:58;100892.9;;;21.6;40.0
72124;BME280;63818;37.134;-8.548;2023-04-03T17:23:47;100863.4;;;21.3;34.1
72124;BME280;63818;37.134;-8.548;2023-04-03T17:28:34;100858.8;;;21.0;31.6
72124;BME280;63818;37.134;-8.548;2023-04-03T17:32:36;100863.7;;;20.9;32.9
72124;BME280;63818;37.134;-8.548;2023-04-03T17:37:23;100882.9;;;20.9;35.2
72124;BME280;63818;37.134;-8.548;2023-04-03T17:42:08;100890.5;;;20.5;41.8
72124;BME280;63818;37.134;-8.548;2023-04-03T17:46:54;100931.8;;;19.5;49.2
72124;BME280;63818;37.134;-8.548;2023-04-03T17:51:41;100906.5;;;19.3;52.3
72124;BME280;63818;37.134;-8.548;2023-04-03T17:56:27;100954.4;;;19.1;55.5
72124;BME280;63818;37.134;-8.548;2023-04-03T18:01:15;100967.6;;;19.1;57.8
72124;BME280;63818;37.134;-8.548;2023-04-03T18:06:03;100988.3;;;19.1;58.6
72124;BME280;63818;37.134;-8.548;2023-04-03T19:22:13;100849.4;;;19.4;44.8
72124;BME280;63818;37.134;-8.548;2023-04-03T19:27:01;100860.0;;;19.4;43.9
72124;BME280;63818;37.134;-8.548;2023-04-03T19:32:01;100838.9;;;19.4;42.6
72124;BME280;63818;37.134;-8.548;2023-04-03T19:36:50;100843.5;;;19.4;42.7
72124;BME280;63818;37.134;-8.548;2023-04-03T19:41:42;100838.6;;;19.4;42.4
72124;BME280;63818;37.134;-8.548;2023-04-03T19:46:28;100838.1;;;19.4;41.7
72124;BME280;63818;37.134;-8.548;2023-04-03T19:51:15;100832.2;;;19.5;41.0
72124;BME280;63818;37.134;-8.548;2023-04-03T19:56:04;100825.7;;;19.6;39.3
72124;BME280;63818;37.134;-8.548;2023-04-03T20:00:50;100813.6;;;19.6;37.4
72124;BME280;63818;37.134;-8.548;2023-04-03T20:05:37;100818.7;;;19.6;36.4
72124;BME280;63818;37.134;-8.548;2023-04-03T20:10:25;100842.4;;;19.3;37.6
72124;BME280;63818;37.134;-8.548;2023-04-03T20:15:12;100852.4;;;19.3;38.6
72124;BME280;63818;37.134;-8.548;2023-04-03T20:19:58;100851.1;;;19.2;38.4
72124;BME280;63818;37.134;-8.548;2023-04-03T20:24:45;100846.4;;;19.0;37.3
72124;BME280;63818;37.134;-8.548;2023-04-03T20:29:31;100843.0;;;18.9;36.6
72124;BME280;63818;37.134;-8.548;2023-04-03T20:34:16;100836.4;;;18.9;35.9
72124;BME280;63818;37.134;-8.548;2023-04-03T20:39:03;100845.3;;;19.0;37.2
72124;BME280;63818;37.134;-8.548;2023-04-03T20:43:49;100856.3;;;18.9;41.8
72124;BME280;63818;37.134;-8.548;2023-04-03T20:48:35;100854.0;;;18.9;44.9
72124;BME280;63818;37.134;-8.548;2023-04-03T20:53:26;100873.6;;;18.8;47.8
72124;BME280;63818;37.134;-8.548;2023-04-03T20:58:12;100894.5;;;18.7;49.1
72124;BME280;63818;37.134;-8.548;2023-04-03T21:03:02;100875.6;;;18.6;49.7
72124;BME280;63818;37.134;-8.548;2023-04-03T21:23:50;100907.8;;;18.3;50.0
72124;BME280;63818;37.134;-8.548;2023-04-03T21:28:37;100901.0;;;18.4;51.2
72124;BME280;63818;37.134;-8.548;2023-04-03T21:33:27;100900.4;;;18.2;52.2
72124;BME280;63818;37.134;-8.548;2023-04-03T21:38:13;100907.1;;;18.3;53.4
72124;BME280;63818;37.134;-8.548;2023-04-03T21:43:00;100927.3;;;18.3;54.5
72124;BME280;63818;37.134;-8.548;2023-04-03T21:47:45;100916.7;;;18.2;55.1
72124;BME280;63818;37.134;-8.548;2023-04-03T21:52:34;100907.8;;;18.2;55.5
72124;BME280;63818;37.134;-8.548;2023-04-03T21:57:20;100901.9;;;18.2;54.7
72124;BME280;63818;37.134;-8.548;2023-04-03T22:02:10;100889.1;;;18.2;52.8
72124;BME280;63818;37.134;-8.548;2023-04-03T22:06:56;100891.4;;;18.1;52.1
72124;BME280;63818;37.134;-8.548;2023-04-03T22:11:43;100885.5;;;18.2;52.4
72124;BME280;63818;37.134;-8.548;2023-04-03T22:16:29;100895.2;;;18.2;54.3
72124;BME280;63818;37.134;-8.548;2023-04-03T22:21:19;100877.0;;;18.2;55.9
72124;BME280;63818;37.134;-8.548;2023-04-03T22:26:07;100907.4;;;18.4;55.7
72124;BME280;63818;37.134;-8.548;2023-04-03T22:30:54;100899.1;;;18.2;56.3
72124;BME280;63818;37.134;-8.548;2023-04-03T22:35:49;100892.8;;;18.2;56.7
72124;BME280;63818;37.134;-8.548;2023-04-03T22:40:35;100892.3;;;18.1;58.0
72124;BME280;63818;37.134;-8.548;2023-04-03T22:45:27;100869.7;;;18.3;58.2
72124;BME280;63818;37.134;-8.548;2023-04-03T22:50:13;100871.5;;;18.2;58.2
72124;BME280;63818;37.134;-8.548;2023-04-03T22:55:01;100865.3;;;18.2;58.1
72124;BME280;63818;37.134;-8.548;2023-04-03T22:59:49;100858.4;;;18.2;57.0
72124;BME280;63818;37.134;-8.548;2023-04-03T23:09:27;100847.3;;;18.5;54.7
72124;BME280;63818;37.134;-8.548;2023-04-03T23:14:16;100849.2;;;18.4;53.5
72124;BME280;63818;37.134;-8.548;2023-04-03T23:19:04;100863.2;;;18.3;56.1
72124;BME280;63818;37.134;-8.548;2023-04-03T23:23:50;100870.6;;;18.1;59.4
72124;BME280;63818;37.134;-8.548;2023-04-03T23:28:36;100860.1;;;18.1;59.9
72124;BME280;63818;37.134;-8.548;2023-04-03T23:33:22;100873.3;;;18.1;60.1
72124;BME280;63818;37.134;-8.548;2023-04-03T23:38:08;100854.3;;;18.1;59.8
72124;BME280;63818;37.134;-8.548;2023-04-03T23:42:54;100858.8;;;18.1;60.1
72124;BME280;63818;37.134;-8.548;2023-04-03T23:47:48;100851.5;;;18.1;60.0
72124;BME280;63818;37.134;-8.548;2023-04-03T23:52:34;100835.5;;;18.2;59.8
72124;BME280;63818;37.134;-8.548;2023-04-03T23:57:25;100824.5;;;18.2;59.8
